Time;durP1;ratioP1;P1;durP2;ratioP2;P2;SDS_P1;SDS_P2;PMS_P1;PMS_P2;Temp;Humidity;BMP_temperature;BMP_pressure;BME280_temperature;BME280_humidity;BME280_pressure;Samples;Min_cycle;Max_cycle;Signal;HPM_P1;HPM_P2
2023/03/30 00:00:19;;;;;;;23.30;10.30;;;;;;;6.56;62.95;100499.75;110919;1206;107980;-62
2023/03/30 00:02:47;;;;;;;26.10;9.80;;;;;;;6.56;62.93;100499.04;110798;1206;139920;-63
2023/03/30 00:05:14;;;;;;;25.90;10.70;;;;;;;6.55;63.11;100490.02;111056;1221;97661;-63
2023/03/30 00:07:44;;;;;;;31.10;11.70;;;;;;;6.56;63.08;100486.28;110965;1206;139478;-62
2023/03/30 00:10:13;;;;;;;21.70;9.60;;;;;;;6.56;63.23;100483.45;111150;1206;99366;-62
2023/03/30 00:12:39;;;;;;;24.90;10.50;;;;;;;6.56;63.30;100480.58;110868;1211;107927;-62
2023/03/30 00:15:08;;;;;;;23.10;11.40;;;;;;;6.57;63.29;100483.75;110981;1209;138798;-62
2023/03/30 00:17:34;;;;;;;18.50;9.10;;;;;;;6.58;63.31;100485.15;111040;1210;97667;-62
2023/03/30 00:20:10;;;;;;;25.00;10.90;;;;;;;6.58;63.29;100481.92;111056;1211;138784;-62
2023/03/30 00:22:45;;;;;;;20.80;9.80;;;;;;;6.58;63.39;100480.35;110878;1209;104110;-62
2023/03/30 00:25:13;;;;;;;25.10;9.60;;;;;;;6.57;63.18;100480.55;110848;1219;107806;-63
2023/03/30 00:27:39;;;;;;;18.40;9.40;;;;;;;6.55;63.42;100475.80;110795;1208;140530;-63
2023/03/30 00:30:09;;;;;;;21.50;10.10;;;;;;;6.56;63.40;100470.84;111051;1211;97722;-63
2023/03/30 00:32:35;;;;;;;22.40;10.40;;;;;;;6.56;63.59;100466.58;110737;1207;138548;-63
2023/03/30 00:35:00;;;;;;;22.80;9.80;;;;;;;6.55;63.43;100462.50;111043;1211;97709;-63
2023/03/30 00:37:26;;;;;;;25.70;11.40;;;;;;;6.53;63.59;100461.50;110941;1211;97652;-63
2023/03/30 00:39:52;;;;;;;22.00;10.30;;;;;;;6.52;63.61;100467.75;110772;1206;139576;-63
2023/03/30 00:42:20;;;;;;;22.50;10.60;;;;;;;6.49;63.42;100465.88;110906;1212;97672;-63
2023/03/30 00:45:13;;;;;;;19.70;10.40;;;;;;;6.45;63.65;100464.22;110877;1209;139587;-63
2023/03/30 00:47:42;;;;;;;18.50;10.30;;;;;;;6.44;63.77;100460.34;110897;1209;107012;-63
2023/03/30 00:50:09;;;;;;;20.10;9.60;;;;;;;6.45;63.80;100462.27;110859;1206;139499;-63
2023/03/30 00:52:36;;;;;;;23.50;10.80;;;;;;;6.44;63.87;100457.48;110712;1206;97793;-63
2023/03/30 00:55:04;;;;;;;19.10;9.90;;;;;;;6.44;63.82;100458.03;111008;1206;98108;-63
2023/03/30 00:57:31;;;;;;;25.50;11.40;;;;;;;6.44;63.97;100455.56;110723;1206;151252;-63
2023/03/30 00:59:56;;;;;;;20.90;9.70;;;;;;;6.42;63.93;100449.91;111070;1209;97645;-63
2023/03/30 01:02:22;;;;;;;20.70;10.40;;;;;;;6.43;64.11;100446.00;110784;1206;140645;-63
2023/03/30 01:04:52;;;;;;;24.20;10.80;;;;;;;6.43;64.10;100446.16;110964;1206;111493;-63
2023/03/30 01:07:17;;;;;;;20.70;10.10;;;;;;;6.44;64.12;100438.70;110851;1208;100059;-63
2023/03/30 01:09:43;;;;;;;22.90;10.00;;;;;;;6.43;64.17;100439.79;110750;1211;139458;-63
2023/03/30 01:12:09;;;;;;;21.20;10.30;;;;;;;6.43;64.29;100438.20;110862;1206;98022;-63
2023/03/30 01:14:36;;;;;;;20.90;10.20;;;;;;;6.44;64.18;100437.10;110785;1208;140502;-63
2023/03/30 01:17:28;;;;;;;21.90;10.10;;;;;;;6.42;64.46;100444.06;111024;1209;97665;-64
2023/03/30 01:20:27;;;;;;;16.60;9.70;;;;;;;6.42;64.39;100436.63;110815;1211;140278;-64
2023/03/30 01:23:11;;;;;;;21.00;9.20;;;;;;;6.41;64.62;100433.80;110877;1208;97358;-63
2023/03/30 01:26:01;;;;;;;22.10;10.30;;;;;;;6.41;64.87;100429.90;110797;1206;140485;-63
2023/03/30 01:28:45;;;;;;;25.50;10.30;;;;;;;6.39;64.80;100424.48;110833;1208;110772;-63
2023/03/30 01:31:30;;;;;;;21.70;10.30;;;;;;;6.36;64.76;100421.90;110878;1210;99951;-63
2023/03/30 01:34:30;;;;;;;24.90;11.10;;;;;;;6.34;64.78;100420.00;110906;1209;139733;-63
2023/03/30 01:37:27;;;;;;;23.80;10.10;;;;;;;6.33;65.06;100420.58;110866;1206;97603;-63
2023/03/30 01:40:32;;;;;;;27.70;10.30;;;;;;;6.33;65.09;100413.10;110826;1211;140369;-63
2023/03/30 01:43:14;;;;;;;24.40;10.80;;;;;;;6.32;65.24;100410.83;110496;1211;111741;-63
2023/03/30 01:45:50;;;;;;;21.20;10.60;;;;;;;6.30;65.04;100405.94;110791;1211;139964;-63
2023/03/30 01:48:34;;;;;;;23.90;10.10;;;;;;;6.26;65.13;100405.00;110922;1208;107423;-63
2023/03/30 01:51:07;;;;;;;23.00;10.50;;;;;;;6.23;65.54;100403.13;110705;1213;139058;-63
2023/03/30 01:53:43;;;;;;;22.90;11.10;;;;;;;6.21;65.41;100401.04;110980;1205;96128;-64
2023/03/30 01:56:27;;;;;;;16.90;9.60;;;;;;;6.19;65.52;100398.63;110745;1207;139567;-62
2023/03/30 01:59:01;;;;;;;22.30;11.10;;;;;;;6.16;65.54;100387.70;110947;1209;101178;-63
2023/03/30 02:01:32;;;;;;;28.50;11.40;;;;;;;6.14;65.69;100386.89;110867;1208;108046;-62
2023/03/30 02:03:58;;;;;;;;;;;;;;;6.11;65.90;100385.19;110952;1206;97655;-62
2023/03/30 02:06:29;;;;;;;25.40;11.40;;;;;;;6.10;65.88;100393.91;110948;1206;97605;-62
2023/03/30 02:08:58;;;;;;;22.30;11.40;;;;;;;6.09;65.97;100390.73;111060;1209;140503;-62
2023/03/30 02:11:26;;;;;;;19.80;10.10;;;;;;;6.07;65.84;100384.25;111005;1206;100520;-62
2023/03/30 02:13:52;;;;;;;21.30;11.10;;;;;;;6.02;66.14;100382.43;110871;1209;140739;-63
2023/03/30 02:16:28;;;;;;;23.90;11.70;;;;;;;6.00;66.20;100381.78;111004;1205;97613;-63
2023/03/30 02:18:54;;;;;;;21.90;10.60;;;;;;;5.99;66.48;100379.17;110994;1211;97499;-63
2023/03/30 02:21:20;;;;;;;22.80;11.00;;;;;;;5.99;66.39;100381.31;111179;1206;139283;-63
2023/03/30 02:23:46;;;;;;;20.20;10.70;;;;;;;5.96;66.50;100376.94;111138;1208;98971;-63
2023/03/30 02:26:12;;;;;;;23.00;10.40;;;;;;;5.94;66.38;100374.88;110921;1211;139636;-63
2023/03/30 02:28:38;;;;;;;24.10;11.40;;;;;;;5.92;66.57;100369.08;111038;1211;98099;-63
2023/03/30 02:31:11;;;;;;;18.90;10.30;;;;;;;5.92;66.84;100362.00;111001;1210;97610;-63
2023/03/30 02:33:57;;;;;;;21.90;11.50;;;;;;;5.93;66.98;100363.20;110907;1211;140393;-63
2023/03/30 02:36:50;;;;;;;24.50;12.50;;;;;;;5.93;67.14;100363.38;110916;1211;108489;-63
2023/03/30 02:39:34;;;;;;;23.50;11.60;;;;;;;5.93;67.25;100364.44;110816;1212;140258;-63
2023/03/30 02:42:32;;;;;;;21.80;10.60;;;;;;;5.93;67.31;100360.55;111002;1209;99694;-63
2023/03/30 02:45:32;;;;;;;26.40;12.20;;;;;;;5.91;67.43;100362.72;110885;1206;140116;-63
2023/03/30 02:48:08;;;;;;;24.50;11.80;;;;;;;5.92;67.66;100359.14;110938;1205;100253;-63
2023/03/30 02:50:50;;;;;;;20.40;11.40;;;;;;;5.93;67.64;100357.72;110819;1211;140150;-63
2023/03/30 02:53:23;;;;;;;28.60;12.10;;;;;;;5.94;67.76;100350.94;111080;1209;97604;-63
2023/03/30 02:56:02;;;;;;;27.70;11.60;;;;;;;5.97;67.91;100345.18;110880;1209;138809;-64
2023/03/30 02:58:35;;;;;;;27.60;11.30;;;;;;;5.98;67.97;100338.95;111037;1222;112075;-63
2023/03/30 03:01:18;;;;;;;21.30;11.50;;;;;;;5.97;68.16;100337.00;111121;1211;99977;-64
2023/03/30 03:03:49;;;;;;;19.60;11.00;;;;;;;5.99;68.25;100333.41;111023;1220;139038;-63
2023/03/30 03:06:16;;;;;;;21.60;11.70;;;;;;;5.99;68.14;100333.95;110913;1211;97588;-64
2023/03/30 03:08:43;;;;;;;23.80;11.70;;;;;;;5.98;68.30;100333.27;110819;1209;140541;-64
2023/03/30 03:11:10;;;;;;;26.10;12.00;;;;;;;5.98;68.54;100333.45;110940;1206;97664;-62
2023/03/30 03:13:36;;;;;;;20.00;11.00;;;;;;;5.97;68.47;100338.06;110891;1208;138957;-62
2023/03/30 03:16:09;;;;;;;24.20;12.60;;;;;;;5.94;68.62;100338.69;111204;1227;96526;-63
2023/03/30 03:18:38;;;;;;;21.40;11.30;;;;;;;5.93;68.74;100338.18;110984;1206;97816;-62
2023/03/30 03:21:06;;;;;;;23.80;11.40;;;;;;;5.91;68.77;100332.21;111016;1209;140648;-62
2023/03/30 03:23:31;;;;;;;25.10;11.10;;;;;;;5.91;68.97;100327.10;111073;1206;97357;-63
2023/03/30 03:25:56;;;;;;;22.70;12.20;;;;;;;5.91;69.17;100322.64;110854;1209;139621;-62
2023/03/30 03:28:21;;;;;;;26.40;11.60;;;;;;;5.92;69.08;100319.08;111095;1211;96444;-62
2023/03/30 03:30:50;;;;;;;21.10;11.70;;;;;;;5.91;69.24;100313.96;111058;1211;97776;-62
2023/03/30 03:33:15;;;;;;;28.40;12.30;;;;;;;5.90;69.44;100310.27;110813;1211;139912;-62
2023/03/30 03:35:44;;;;;;;25.60;12.60;;;;;;;5.91;69.44;100306.34;111018;1217;97610;-63
2023/03/30 03:38:11;;;;;;;23.60;11.90;;;;;;;5.91;69.74;100310.23;110841;1206;140045;-63
2023/03/30 03:40:36;;;;;;;26.10;13.00;;;;;;;5.90;69.60;100305.65;111068;1211;98475;-65
2023/03/30 03:43:02;;;;;;;21.00;11.30;;;;;;;5.86;69.63;100302.71;111046;1210;98131;-63
2023/03/30 03:45:27;;;;;;;23.20;12.40;;;;;;;5.84;69.81;100299.60;110851;1206;140427;-63
2023/03/30 03:47:52;;;;;;;23.10;12.50;;;;;;;5.82;69.74;100297.88;111086;1211;97583;-63
2023/03/30 03:50:18;;;;;;;24.10;12.90;;;;;;;5.80;69.80;100297.05;110831;1209;140780;-63
2023/03/30 03:52:43;;;;;;;21.90;11.80;;;;;;;5.76;70.30;100294.68;110961;1206;98631;-63
2023/03/30 03:55:09;;;;;;;26.20;14.40;;;;;;;5.74;70.09;100290.14;111071;1211;97645;-63
2023/03/30 03:57:35;;;;;;;25.80;13.40;;;;;;;5.71;70.23;100290.21;110754;1211;139780;-63
2023/03/30 04:00:00;;;;;;;23.00;12.40;;;;;;;5.69;70.39;100285.50;110965;1206;97581;-63
2023/03/30 04:02:26;;;;;;;27.70;13.80;;;;;;;5.65;70.32;100279.23;110890;1210;140491;-63
2023/03/30 04:04:52;;;;;;;24.10;12.60;;;;;;;5.62;70.84;100274.02;111029;1209;97651;-63
2023/03/30 04:07:18;;;;;;;25.90;13.50;;;;;;;5.62;71.02;100276.31;110974;1211;97684;-63
2023/03/30 04:09:43;;;;;;;29.50;13.70;;;;;;;5.60;70.58;100275.33;110940;1211;140355;-63
2023/03/30 04:12:09;;;;;;;24.00;13.60;;;;;;;5.53;70.92;100274.77;110995;1206;97732;-63
2023/03/30 04:14:34;;;;;;;27.70;13.20;;;;;;;5.51;71.05;100278.05;110867;1208;138851;-63
2023/03/30 04:16:59;;;;;;;27.70;13.10;;;;;;;5.49;71.20;100274.73;110954;1211;97723;-63
2023/03/30 04:19:26;;;;;;;26.90;13.80;;;;;;;5.47;71.26;100270.70;110946;1207;97595;-63
2023/03/30 04:21:54;;;;;;;23.90;12.40;;;;;;;5.47;71.54;100268.39;111090;1208;140363;-63
2023/03/30 04:24:21;;;;;;;23.10;12.30;;;;;;;5.48;71.68;100264.65;111073;1209;97702;-63
2023/03/30 04:26:47;;;;;;;29.90;13.70;;;;;;;5.47;71.61;100260.95;110806;1205;140252;-63
2023/03/30 04:29:16;;;;;;;22.30;12.40;;;;;;;5.47;72.01;100258.66;111297;1209;97667;-63
2023/03/30 04:31:45;;;;;;;25.30;13.30;;;;;;;5.49;72.17;100255.41;110925;1211;139239;-63
2023/03/30 04:34:13;;;;;;;27.50;13.50;;;;;;;5.50;71.96;100256.45;111110;1211;97619;-63
2023/03/30 04:36:42;;;;;;;24.90;12.30;;;;;;;5.48;71.98;100257.22;111035;1206;97826;-63
2023/03/30 04:39:10;;;;;;;24.30;13.50;;;;;;;5.46;72.06;100255.49;110779;1209;139452;-63
2023/03/30 04:41:36;;;;;;;25.00;14.00;;;;;;;5.46;72.45;100256.40;111050;1208;99590;-64
2023/03/30 04:44:08;;;;;;;26.90;14.00;;;;;;;5.45;72.47;100252.16;110959;1208;139686;-63
2023/03/30 04:46:34;;;;;;;30.20;14.40;;;;;;;5.44;72.48;100250.23;110971;1222;101292;-62
2023/03/30 04:48:59;;;;;;;29.90;14.60;;;;;;;5.44;72.75;100245.80;111015;1206;97671;-62
2023/03/30 04:51:24;;;;;;;27.00;15.10;;;;;;;5.46;72.51;100244.16;110942;1211;139257;-63
2023/03/30 04:53:50;;;;;;;37.10;16.00;;;;;;;5.45;72.75;100242.25;110906;1206;99085;-62
2023/03/30 04:56:15;;;;;;;34.10;16.00;;;;;;;5.43;72.86;100237.14;110880;1220;140485;-64
2023/03/30 04:58:41;;;;;;;28.90;15.10;;;;;;;5.44;72.91;100233.07;111062;1206;97597;-64
2023/03/30 05:01:07;;;;;;;29.70;15.10;;;;;;;5.44;73.18;100233.58;111008;1206;97581;-64
2023/03/30 05:03:33;;;;;;;31.20;16.50;;;;;;;5.45;73.32;100231.25;110896;1211;139246;-62
2023/03/30 05:05:58;;;;;;;26.00;15.30;;;;;;;5.45;73.16;100230.90;110913;1207;96885;-63
2023/03/30 05:08:23;;;;;;;26.70;15.20;;;;;;;5.43;73.29;100224.20;110692;1211;140597;-62
2023/03/30 05:10:49;;;;;;;30.00;15.20;;;;;;;5.45;73.62;100216.54;110905;1219;97633;-63
2023/03/30 05:13:14;;;;;;;28.30;15.20;;;;;;;5.50;73.79;100213.73;110839;1209;96463;-62
2023/03/30 05:15:40;;;;;;;27.30;15.10;;;;;;;5.55;73.90;100208.09;110843;1206;138835;-63
2023/03/30 05:18:05;;;;;;;29.40;15.10;;;;;;;5.58;73.77;100211.21;110812;1209;98290;-63
2023/03/30 05:20:31;;;;;;;27.70;15.20;;;;;;;5.57;73.79;100211.75;110622;1211;139123;-62
2023/03/30 05:22:56;;;;;;;26.30;15.10;;;;;;;5.58;73.99;100212.81;110967;1205;97638;-63
2023/03/30 05:25:21;;;;;;;30.80;15.20;;;;;;;5.60;74.06;100211.84;110956;1208;111591;-62
2023/03/30 05:27:47;;;;;;;26.00;15.30;;;;;;;5.61;74.19;100217.14;110901;1206;140829;-62
2023/03/30 05:30:12;;;;;;;31.50;16.00;;;;;;;5.62;74.43;100218.17;110913;1211;97714;-63
2023/03/30 05:32:38;;;;;;;27.90;15.30;;;;;;;5.62;74.22;100214.45;110778;1211;139525;-62
2023/03/30 05:35:04;;;;;;;28.10;15.60;;;;;;;5.63;74.48;100207.52;111011;1211;99364;-62
2023/03/30 05:37:30;;;;;;;25.50;15.50;;;;;;;5.66;74.72;100204.58;110878;1211;108489;-63
2023/03/30 05:39:55;;;;;;;31.00;17.00;;;;;;;5.69;74.79;100204.14;110786;1208;140151;-62
2023/03/30 05:42:21;;;;;;;34.70;16.00;;;;;;;5.71;74.76;100201.40;110959;1211;97597;-63
2023/03/30 05:44:47;;;;;;;34.50;17.50;;;;;;;5.74;74.91;100197.77;110838;1211;140288;-62
2023/03/30 05:47:12;;;;;;;29.60;16.30;;;;;;;5.78;75.14;100196.57;110847;1207;98117;-65
2023/03/30 05:49:37;;;;;;;28.90;16.20;;;;;;;5.81;75.11;100197.54;110818;1208;140561;-62
2023/03/30 05:52:03;;;;;;;33.70;17.80;;;;;;;5.83;75.24;100197.66;110789;1209;97757;-63
2023/03/30 05:54:28;;;;;;;28.40;16.20;;;;;;;5.85;75.39;100195.81;110870;1205;97640;-62
2023/03/30 05:56:53;;;;;;;35.80;16.60;;;;;;;5.89;75.43;100197.51;110795;1211;139834;-63
2023/03/30 05:59:20;;;;;;;27.10;14.70;;;;;;;5.90;75.34;100202.25;110855;1211;97558;-62
2023/03/30 06:01:46;;;;;;;43.30;15.30;;;;;;;5.86;75.54;100196.15;110605;1211;138994;-62
2023/03/30 06:04:12;;;;;;;29.60;15.60;;;;;;;5.85;75.92;100200.27;110816;1211;108224;-62
2023/03/30 06:06:37;;;;;;;25.30;14.00;;;;;;;5.86;75.83;100203.79;110863;1211;98184;-64
2023/03/30 06:09:03;;;;;;;23.80;13.90;;;;;;;5.85;76.02;100201.66;110931;1211;140809;-63
2023/03/30 06:11:29;;;;;;;29.40;14.30;;;;;;;5.83;76.55;100205.98;111237;1207;97572;-62
2023/03/30 06:13:54;;;;;;;27.40;14.90;;;;;;;5.83;76.45;100205.63;110797;1211;140502;-62
2023/03/30 06:16:20;;;;;;;28.20;14.60;;;;;;;5.84;76.58;100198.17;110945;1210;97597;-63
2023/03/30 06:18:46;;;;;;;30.10;15.30;;;;;;;5.85;76.71;100198.65;111071;1211;111615;-63
2023/03/30 06:21:11;;;;;;;28.10;14.30;;;;;;;5.89;76.88;100196.45;110858;1213;139936;-63
2023/03/30 06:23:37;;;;;;;37.10;14.10;;;;;;;5.92;77.43;100192.83;110994;1210;97700;-62
2023/03/30 06:26:03;;;;;;;23.90;14.70;;;;;;;5.93;77.20;100190.29;110654;1208;139574;-62
2023/03/30 06:28:29;;;;;;;27.90;13.60;;;;;;;5.94;77.65;100189.90;110894;1211;97707;-62
2023/03/30 06:30:55;;;;;;;22.00;13.30;;;;;;;5.98;77.77;100186.60;111039;1208;98136;-62
2023/03/30 06:33:21;;;;;;;27.00;14.00;;;;;;;6.03;77.89;100172.58;110932;1220;138772;-62
2023/03/30 06:35:48;;;;;;;25.20;14.80;;;;;;;6.11;78.18;100169.48;110921;1206;97704;-62
2023/03/30 06:38:16;;;;;;;25.30;15.50;;;;;;;6.22;78.32;100164.00;110796;1210;140037;-62
2023/03/30 06:40:42;;;;;;;25.90;15.60;;;;;;;6.31;78.39;100155.88;111046;1209;97617;-62
2023/03/30 06:43:13;;;;;;;24.20;14.30;;;;;;;6.35;78.47;100155.38;111028;1208;97722;-62
2023/03/30 06:45:39;;;;;;;25.30;14.80;;;;;;;6.38;78.50;100152.64;110923;1210;139387;-63
2023/03/30 06:48:05;;;;;;;31.10;15.40;;;;;;;6.44;78.78;100144.61;111101;1209;97607;-62
2023/03/30 06:50:31;;;;;;;25.30;15.00;;;;;;;6.51;78.89;100143.64;110972;1207;139257;-63
2023/03/30 06:52:56;;;;;;;23.80;14.20;;;;;;;6.57;78.94;100140.27;110941;1205;97685;-63
2023/03/30 06:55:22;;;;;;;25.20;14.50;;;;;;;6.60;79.10;100135.34;110677;1208;99094;-62
2023/03/30 06:57:47;;;;;;;34.40;18.00;;;;;;;6.64;79.13;100138.58;110734;1209;139654;-62
2023/03/30 07:00:14;;;;;;;19.20;11.90;;;;;;;6.63;79.11;100144.48;110920;1211;97671;-62
2023/03/30 07:02:40;;;;;;;27.40;13.20;;;;;;;6.61;79.12;100150.61;111079;1209;138624;-63
2023/03/30 07:05:06;;;;;;;25.80;14.30;;;;;;;6.61;79.39;100148.46;111171;1209;97735;-62
2023/03/30 07:07:32;;;;;;;29.20;13.20;;;;;;;6.60;79.24;100151.14;111313;1211;99623;-62
2023/03/30 07:09:58;;;;;;;24.60;14.10;;;;;;;6.59;79.57;100152.62;110954;1209;97680;-62
2023/03/30 07:12:23;;;;;;;28.90;12.90;;;;;;;6.60;79.47;100159.51;110954;1211;97721;-63
2023/03/30 07:14:49;;;;;;;29.30;13.70;;;;;;;6.59;79.76;100165.57;110901;1220;140943;-62
2023/03/30 07:17:14;;;;;;;26.00;12.80;;;;;;;6.58;79.60;100164.00;110890;1211;97767;-61
2023/03/30 07:19:39;;;;;;;23.50;13.40;;;;;;;6.57;79.78;100161.38;110950;1211;139387;-61
2023/03/30 07:22:05;;;;;;;26.20;12.60;;;;;;;6.59;79.96;100158.48;110966;1206;97722;-59
2023/03/30 07:24:30;;;;;;;23.40;13.60;;;;;;;6.60;79.89;100153.83;110962;1208;98062;-60
2023/03/30 07:26:56;;;;;;;27.40;14.40;;;;;;;6.62;80.05;100146.11;110855;1211;140930;-60
2023/03/30 07:29:22;;;;;;;55.40;28.50;;;;;;;6.67;80.14;100139.36;110886;1211;98657;-60
2023/03/30 07:31:47;;;;;;;26.40;15.30;;;;;;;6.74;80.25;100138.06;110973;1206;140395;-60
2023/03/30 07:34:13;;;;;;;27.50;13.70;;;;;;;6.79;80.29;100136.42;111027;1208;97704;-60
2023/03/30 07:36:38;;;;;;;21.70;12.20;;;;;;;6.83;80.25;100135.06;110959;1207;97631;-60
2023/03/30 07:39:03;;;;;;;25.80;13.00;;;;;;;6.84;80.45;100126.51;110835;1211;140182;-60
2023/03/30 07:41:28;;;;;;;20.80;12.90;;;;;;;6.87;80.45;100122.30;110990;1205;97579;-60
2023/03/30 07:43:54;;;;;;;18.60;12.50;;;;;;;6.89;80.42;100121.37;110893;1209;140734;-60
2023/03/30 07:46:19;;;;;;;22.70;13.90;;;;;;;6.94;80.60;100113.50;110797;1211;99004;-60
2023/03/30 07:48:44;;;;;;;20.10;12.60;;;;;;;7.04;80.77;100101.59;110981;1209;98439;-60
2023/03/30 07:51:11;;;;;;;21.10;12.60;;;;;;;7.16;80.92;100093.68;110886;1209;139699;-60
2023/03/30 07:53:37;;;;;;;20.70;13.40;;;;;;;7.27;80.89;100096.11;110826;1211;97718;-62
2023/03/30 07:56:03;;;;;;;19.00;12.50;;;;;;;7.35;81.06;100096.16;110690;1213;141034;-61
2023/03/30 07:58:28;;;;;;;24.10;13.00;;;;;;;7.45;81.13;100093.08;110918;1211;97862;-61
2023/03/30 08:00:54;;;;;;;23.00;12.70;;;;;;;7.56;81.23;100084.65;110951;1207;97665;-60
2023/03/30 08:03:21;;;;;;;22.90;13.60;;;;;;;7.65;81.24;100082.67;110830;1209;139242;-60
2023/03/30 08:06:05;;;;;;;19.60;12.10;;;;;;;7.72;81.33;100083.65;111179;1206;98632;-60
2023/03/30 08:08:32;;;;;;;22.30;13.00;;;;;;;7.78;81.34;100070.38;110916;1211;139104;-60
2023/03/30 08:10:57;;;;;;;21.00;12.70;;;;;;;7.88;81.49;100066.05;111093;1206;96868;-60
2023/03/30 08:13:23;;;;;;;26.60;14.70;;;;;;;7.96;81.51;100061.99;110921;1211;98614;-60
2023/03/30 08:15:49;;;;;;;25.00;15.40;;;;;;;8.04;81.61;100055.96;110984;1211;139473;-60
2023/03/30 08:18:15;;;;;;;24.40;14.20;;;;;;;8.15;81.74;100052.82;110998;1211;97601;-60
2023/03/30 08:20:41;;;;;;;25.60;13.90;;;;;;;8.25;81.84;100051.52;110828;1206;139837;-61
2023/03/30 08:23:09;;;;;;;20.90;11.40;;;;;;;8.34;81.86;100053.10;111023;1211;98777;-60
2023/03/30 08:25:35;;;;;;;21.60;11.70;;;;;;;8.40;81.90;100048.00;110812;1211;139438;-59
2023/03/30 08:28:01;;;;;;;21.60;11.70;;;;;;;8.48;81.85;100040.55;110929;1208;97695;-61
2023/03/30 08:30:26;;;;;;;22.80;11.20;;;;;;;8.57;82.09;100037.12;111001;1211;97566;-58
2023/03/30 08:32:52;;;;;;;23.50;11.00;;;;;;;8.72;82.12;100036.42;110780;1206;140936;-58
2023/03/30 08:35:20;;;;;;;18.00;11.60;;;;;;;8.85;82.12;100034.60;110948;1211;99273;-61
2023/03/30 08:37:45;;;;;;;24.80;13.80;;;;;;;8.97;82.22;100040.06;111038;1211;141301;-59
2023/03/30 08:40:11;;;;;;;20.30;12.20;;;;;;;9.05;82.07;100035.06;111039;1207;97648;-59
2023/03/30 08:42:40;;;;;;;24.60;14.40;;;;;;;9.11;82.15;100027.29;110977;1210;97693;-59
2023/03/30 08:45:09;;;;;;;24.40;12.80;;;;;;;9.24;82.42;100020.61;110817;1211;139280;-60
2023/03/30 08:47:39;;;;;;;20.00;12.00;;;;;;;9.33;82.10;100023.40;111003;1209;111083;-62
2023/03/30 08:50:14;;;;;;;19.00;12.40;;;;;;;9.38;82.26;100016.05;110914;1211;139129;-59
2023/03/30 08:52:40;;;;;;;19.20;11.50;;;;;;;9.52;82.40;100008.59;110765;1211;108249;-59
2023/03/30 08:55:20;;;;;;;22.50;12.40;;;;;;;9.61;82.33;100011.16;110982;1211;97688;-60
2023/03/30 08:58:08;;;;;;;20.60;12.10;;;;;;;9.62;82.21;100009.51;110990;1211;139727;-59
2023/03/30 09:00:42;;;;;;;22.40;10.70;;;;;;;9.60;82.17;99995.49;110933;1211;111459;-60
2023/03/30 09:03:18;;;;;;;18.60;11.20;;;;;;;9.51;82.02;99993.27;110743;1207;138906;-60
2023/03/30 09:05:50;;;;;;;17.90;10.50;;;;;;;9.53;82.15;99984.64;110948;1212;106855;-59
2023/03/30 09:08:21;;;;;;;17.60;10.80;;;;;;;9.62;82.40;99978.48;110825;1222;140349;-60
2023/03/30 09:11:03;;;;;;;17.20;10.10;;;;;;;9.71;82.46;99979.06;110969;1211;97645;-59
2023/03/30 09:13:33;;;;;;;18.00;10.40;;;;;;;9.81;82.25;99970.71;110851;1211;110513;-59
2023/03/30 09:16:04;;;;;;;18.50;9.90;;;;;;;9.90;82.29;99965.98;110944;1206;100167;-59
2023/03/30 09:18:36;;;;;;;17.30;10.80;;;;;;;10.08;82.34;99953.62;110837;1211;109436;-59
2023/03/30 09:21:02;;;;;;;;;;;;;;;10.25;82.43;99946.14;110847;1212;139581;-60
2023/03/30 09:23:30;;;;;;;16.80;8.80;;;;;;;10.40;82.39;99941.41;111049;1206;97600;-59
2023/03/30 09:26:33;;;;;;;18.70;9.80;;;;;;;10.46;82.22;99933.18;110803;1211;139461;-59
2023/03/30 09:29:02;;;;;;;16.50;10.00;;;;;;;10.58;82.26;99924.67;110970;1211;100426;-59
2023/03/30 09:31:49;;;;;;;13.60;8.70;;;;;;;10.67;82.38;99925.58;110885;1206;109138;-60
2023/03/30 09:34:29;;;;;;;18.10;9.50;;;;;;;10.71;82.07;99923.73;110973;1211;97787;-59
2023/03/30 09:37:11;;;;;;;14.50;9.00;;;;;;;10.67;81.83;99924.50;110890;1211;98115;-59
2023/03/30 09:39:37;;;;;;;13.30;8.60;;;;;;;10.66;81.88;99920.30;110773;1207;140487;-59
2023/03/30 09:42:21;;;;;;;16.20;9.50;;;;;;;10.73;82.00;99922.92;111041;1206;97801;-59
2023/03/30 09:44:51;;;;;;;15.30;9.10;;;;;;;10.86;82.04;99919.70;110838;1211;139203;-60
2023/03/30 09:47:31;;;;;;;16.30;10.40;;;;;;;11.05;82.35;99918.83;110909;1219;97705;-59
2023/03/30 09:50:03;;;;;;;15.50;8.50;;;;;;;11.24;82.30;99917.02;110997;1212;139063;-59
2023/03/30 09:52:31;;;;;;;17.10;8.50;;;;;;;11.38;82.14;99912.80;110988;1207;111230;-60
2023/03/30 09:55:16;;;;;;;14.60;8.00;;;;;;;11.46;81.98;99909.84;111033;1207;99516;-61
2023/03/30 09:57:42;;;;;;;14.00;7.60;;;;;;;11.59;82.02;99907.09;110910;1209;138558;-61
2023/03/30 10:00:31;;;;;;;14.40;8.40;;;;;;;11.69;81.73;99902.91;110861;1206;97615;-65
2023/03/30 10:03:03;;;;;;;18.70;10.80;;;;;;;11.77;81.65;99905.31;110776;1207;139370;-61
2023/03/30 10:05:31;;;;;;;26.20;13.00;;;;;;;11.83;81.57;99899.23;110957;1207;111023;-64
2023/03/30 10:08:00;;;;;;;18.30;8.70;;;;;;;11.90;81.48;99893.06;110881;1210;140878;-60
2023/03/30 10:10:25;;;;;;;19.90;8.80;;;;;;;11.93;81.43;99887.33;110867;1211;108053;-60
2023/03/30 10:12:54;;;;;;;19.00;8.40;;;;;;;11.96;81.19;99888.75;110980;1212;97664;-61
2023/03/30 10:15:26;;;;;;;13.40;7.10;;;;;;;11.97;81.11;99884.42;110916;1206;139459;-60
2023/03/30 10:17:55;;;;;;;12.40;7.20;;;;;;;11.95;80.93;99878.39;111012;1206;110719;-61
2023/03/30 10:20:29;;;;;;;12.60;7.10;;;;;;;11.96;80.82;99877.85;110855;1206;140172;-60
2023/03/30 10:23:02;;;;;;;14.10;8.10;;;;;;;11.99;80.72;99877.48;110880;1207;107612;-60
2023/03/30 10:25:30;;;;;;;17.50;8.00;;;;;;;12.05;80.72;99875.34;110853;1206;97957;-60
2023/03/30 10:28:01;;;;;;;17.40;8.50;;;;;;;12.07;80.51;99870.18;110908;1211;140581;-60
2023/03/30 10:30:28;;;;;;;18.20;9.20;;;;;;;12.12;80.32;99872.58;110987;1206;111652;-60
2023/03/30 10:32:56;;;;;;;20.00;9.50;;;;;;;12.12;80.13;99874.15;111044;1210;139407;-60
2023/03/30 10:35:30;;;;;;;16.30;8.40;;;;;;;12.11;80.04;99877.81;110962;1212;97588;-60
2023/03/30 10:37:57;;;;;;;18.00;7.90;;;;;;;12.11;79.94;99879.27;111021;1206;138867;-61
2023/03/30 10:40:31;;;;;;;14.50;7.90;;;;;;;12.14;79.83;99875.31;111008;1206;98371;-60
2023/03/30 10:42:57;;;;;;;11.10;6.30;;;;;;;12.23;79.74;99880.16;111062;1212;111736;-60
2023/03/30 10:45:36;;;;;;;15.40;7.90;;;;;;;12.31;79.28;99875.48;110762;1206;139307;-59
2023/03/30 10:48:05;;;;;;;13.50;7.80;;;;;;;12.42;79.37;99874.46;110957;1212;109582;-60
2023/03/30 10:50:53;;;;;;;16.10;7.80;;;;;;;12.52;79.32;99869.67;111137;1212;138737;-60
2023/03/30 10:53:49;;;;;;;9.40;6.40;;;;;;;12.63;79.06;99870.61;110998;1209;97962;-60
2023/03/30 10:56:30;;;;;;;13.30;7.10;;;;;;;12.71;78.91;99871.89;110717;1206;140422;-59
2023/03/30 10:59:04;;;;;;;19.60;7.70;;;;;;;12.74;78.52;99869.38;110996;1206;98910;-62
2023/03/30 11:01:54;;;;;;;17.30;7.90;;;;;;;12.77;78.31;99866.67;110875;1212;107733;-59
2023/03/30 11:04:34;;;;;;;17.30;8.20;;;;;;;12.79;78.24;99857.58;110959;1212;97932;-60
2023/03/30 11:07:01;;;;;;;13.90;8.30;;;;;;;12.85;78.16;99843.15;110978;1206;97607;-59
2023/03/30 11:09:35;;;;;;;15.40;8.10;;;;;;;12.94;77.89;99838.45;110870;1211;138645;-59
2023/03/30 11:12:09;;;;;;;15.30;8.70;;;;;;;13.03;77.83;99836.38;111017;1212;100016;-59
2023/03/30 11:14:55;;;;;;;15.40;8.70;;;;;;;13.06;77.43;99834.95;110800;1212;139959;-61
2023/03/30 11:17:29;;;;;;;19.50;8.70;;;;;;;13.09;77.40;99834.22;110970;1212;97819;-60
2023/03/30 11:19:57;;;;;;;16.10;8.40;;;;;;;13.17;77.12;99829.19;110769;1212;139226;-60